Strona główna
METAR-TAF:

METAR-TAF

Lotnisko :

Baza lotnicza

Landivisiau, Francja

Szerokość geograficzna: 48-31N, Długość geograficzna: 004-09W, wysokość: 106 m

Aktualna obserwacja pogody

Raport powstał 25 minut temu, godzina 00:30 UTC
Wiatr 10 kt od południowy wschód
Temperatura 13°C
Wilgotność 51%
Ciśnienie 1011 hPa
Widzialność 10 km lub więcej
Brak chmur poniżej 1500 m i brak chmur cumulonimbus

METAR: LFRJ 050030Z AUTO 14010KT CAVOK 13/03 Q1011

czas: 02:55 (00:55 UTC)

Prognoza

Raport powstał 4 godziny i 55 minut temu, godzina 20:00 UTC
Prognoza ważna od 04 godzina 21 UTC do 05 godzina 06 UTC
Wiatr 15 kt od południowo-południowy wschód w porywach dochodzący do 25 kt
Widzialność 10 km lub więcej
Brak chmur poniżej 1500 m i brak chmur cumulonimbus

TAF: LFRJ 042000Z 0421/0506 15015G25KT CAVOK

Obserwacja i prognoza pogody dla ponad 4000 lotnisk (raport METAR i TAF).

Dostępne stacje oznaczono żółtymi i czerwonymi punktami na mapie.

Najedź kursorem aby zobaczyć nazwę stacji.

Kliknij aby zobaczyć obserwacje i prognozy pogody.

Aby zmienić mapę: kliknij na zielony przycisk z czarnym krzyżykiem, aby powiększyć; na zielony przycisk z myślnikiem, aby pomniejszyć; na zielone strzałki, aby przejść do map sąsiednich.


METAR-TAF: